Time;durP1;ratioP1;P1;durP2;ratioP2;P2;SDS_P1;SDS_P2;PMS_P1;PMS_P2;Temp;Humidity;BMP_temperature;BMP_pressure;BME280_temperature;BME280_humidity;BME280_pressure;Samples;Min_cycle;Max_cycle;Signal;HPM_P1;HPM_P2
2022/10/04 00:01:12;;;;;;;15.68;6.85;;;;;;;9.81;100.00;99110.05;3975357;88;21081;-84
2022/10/04 00:07:17;;;;;;;22.20;8.30;;;;;;;9.79;100.00;99108.25;4100760;85;21054;-83
2022/10/04 00:13:24;;;;;;;15.03;7.17;;;;;;;9.80;100.00;99109.84;4049535;87;21031;-83
2022/10/04 00:19:46;;;;;;;20.80;7.70;;;;;;;9.78;100.00;99103.16;4046820;87;21063;-84
2022/10/04 00:25:49;;;;;;;18.17;9.88;;;;;;;9.78;100.00;99094.38;4042008;87;21104;-84
2022/10/04 00:32:13;;;;;;;24.55;7.97;;;;;;;9.81;100.00;99099.68;4091326;84;21122;-84
2022/10/04 00:38:18;;;;;;;14.45;7.67;;;;;;;9.83;100.00;99108.31;4101007;85;21039;-85
2022/10/04 00:44:45;;;;;;;17.55;7.35;;;;;;;9.82;100.00;99097.18;4089860;85;21118;-84
2022/10/04 00:50:54;;;;;;;15.10;6.73;;;;;;;9.78;100.00;99092.22;3987791;88;21101;-84
2022/10/04 00:57:03;;;;;;;12.55;6.05;;;;;;;9.78;100.00;99089.48;4083721;84;21089;-84
2022/10/04 01:03:20;;;;;;;13.95;6.78;;;;;;;9.78;100.00;99090.28;4094063;86;21021;-84
2022/10/04 01:09:22;;;;;;;12.85;6.08;;;;;;;9.76;100.00;99089.85;4075228;86;21030;-84
2022/10/04 01:15:54;;;;;;;12.85;6.67;;;;;;;9.76;100.00;99081.65;4089156;84;21066;-85
2022/10/04 01:22:35;;;;;;;13.98;7.28;;;;;;;9.75;100.00;99080.09;4103195;85;21060;-85
2022/10/04 01:28:37;;;;;;;15.45;8.58;;;;;;;9.75;100.00;99080.66;4094750;84;21130;-85
2022/10/04 01:34:40;;;;;;;18.02;8.23;;;;;;;9.74;100.00;99080.45;4105138;84;22210;-85
2022/10/04 01:40:49;;;;;;;17.02;8.13;;;;;;;9.73;100.00;99076.13;4114162;85;21068;-84
2022/10/04 01:46:53;;;;;;;15.78;9.28;;;;;;;9.75;100.00;99075.19;4106591;85;21552;-84
2022/10/04 01:53:15;;;;;;;17.90;9.18;;;;;;;9.74;100.00;99068.92;4106732;84;21094;-85
2022/10/04 01:59:25;;;;;;;15.35;7.90;;;;;;;9.74;100.00;99080.45;4045665;85;21124;-84
2022/10/04 02:05:32;;;;;;;13.72;7.67;;;;;;;9.71;100.00;99079.22;4105857;85;20995;-85
2022/10/04 02:11:35;;;;;;;19.00;7.87;;;;;;;9.71;100.00;99079.22;4109402;85;20965;-85
2022/10/04 02:17:41;;;;;;;14.18;6.72;;;;;;;9.70;100.00;99089.95;4096923;85;21042;-85
2022/10/04 02:23:44;;;;;;;14.03;7.33;;;;;;;9.71;100.00;99075.12;4075598;87;21919;-84
2022/10/04 02:29:45;;;;;;;8.63;4.72;;;;;;;9.71;100.00;99072.98;4114598;84;21033;-84
2022/10/04 02:35:47;;;;;;;9.43;4.92;;;;;;;9.66;100.00;99076.02;4107527;84;21071;-85
2022/10/04 02:42:00;;;;;;;12.40;5.53;;;;;;;9.59;100.00;99073.96;4101273;85;21616;-84
2022/10/04 02:48:23;;;;;;;13.50;5.20;;;;;;;9.55;100.00;99073.89;4081486;85;35507;-85
2022/10/04 02:54:47;;;;;;;12.75;5.53;;;;;;;9.49;100.00;99078.09;4074699;86;21596;-84
2022/10/04 03:00:52;;;;;;;12.45;5.17;;;;;;;9.44;100.00;99088.56;4066354;86;21010;-84
2022/10/04 03:06:57;;;;;;;11.55;5.45;;;;;;;9.37;100.00;99081.59;3974756;88;21027;-84
2022/10/04 03:12:58;;;;;;;10.72;5.12;;;;;;;9.34;100.00;99088.59;3944486;89;21043;-84
2022/10/04 03:19:00;;;;;;;8.53;4.72;;;;;;;9.37;100.00;99091.16;4007434;87;21011;-84
2022/10/04 03:25:02;;;;;;;21.85;7.17;;;;;;;9.38;100.00;99094.12;3964351;88;21046;-84
2022/10/04 03:31:05;;;;;;;12.43;6.03;;;;;;;9.35;100.00;99089.35;3938786;89;21027;-84
2022/10/04 03:37:12;;;;;;;13.13;7.42;;;;;;;9.36;100.00;99089.59;3984494;88;21084;-83
2022/10/04 03:43:14;;;;;;;18.12;7.05;;;;;;;9.35;100.00;99088.79;3971577;88;21047;-86
2022/10/04 03:49:19;;;;;;;12.70;6.05;;;;;;;9.34;100.00;99085.05;3951896;89;21098;-85
2022/10/04 03:55:30;;;;;;;11.33;5.15;;;;;;;9.32;100.00;99080.52;3984604;87;21554;-84
2022/10/04 04:01:58;;;;;;;11.95;5.10;;;;;;;9.25;100.00;99085.31;3986063;88;21594;-86
2022/10/04 04:08:35;;;;;;;14.07;4.80;;;;;;;9.22;100.00;99094.80;3979085;88;21028;-85
2022/10/04 04:14:40;;;;;;;12.18;3.83;;;;;;;9.21;100.00;99096.73;3948150;88;21972;-85
2022/10/04 04:20:43;;;;;;;6.53;3.87;;;;;;;9.21;100.00;99102.20;4022327;86;21031;-84
2022/10/04 04:26:54;;;;;;;10.80;3.87;;;;;;;9.19;100.00;99099.63;4020706;86;21059;-83
2022/10/04 04:32:56;;;;;;;6.53;3.90;;;;;;;9.20;100.00;99102.00;3965244;88;21507;-85
2022/10/04 04:39:39;;;;;;;10.32;4.20;;;;;;;9.23;100.00;99114.92;4017156;87;21043;-85
2022/10/04 04:45:40;;;;;;;11.00;4.97;;;;;;;9.25;100.00;99114.56;4079635;86;21052;-85
2022/10/04 04:51:50;;;;;;;9.63;5.20;;;;;;;9.25;100.00;99129.02;4079940;86;21085;-83
2022/10/04 04:57:55;;;;;;;18.50;7.15;;;;;;;9.25;100.00;99126.28;4015553;87;21014;-83
2022/10/04 05:04:14;;;;;;;11.88;6.53;;;;;;;9.29;100.00;99131.79;4013231;87;21153;-84
2022/10/04 05:10:31;;;;;;;16.10;7.17;;;;;;;9.31;100.00;99141.22;3937205;89;21098;-85
2022/10/04 05:16:53;;;;;;;17.37;8.05;;;;;;;9.35;100.00;99157.09;3948335;89;21040;-83
2022/10/04 05:22:56;;;;;;;16.17;8.55;;;;;;;9.39;100.00;99162.63;4012626;86;21118;-84
2022/10/04 05:29:08;;;;;;;16.42;8.35;;;;;;;9.44;100.00;99173.27;4011853;87;21108;-83
2022/10/04 05:35:19;;;;;;;19.87;8.48;;;;;;;9.49;100.00;99176.47;3986410;87;22304;-84
2022/10/04 05:41:55;;;;;;;18.25;7.67;;;;;;;9.55;100.00;99183.21;3979166;88;21957;-84
2022/10/04 05:47:59;;;;;;;18.55;8.43;;;;;;;9.61;100.00;99183.72;4063231;86;21787;-84
2022/10/04 05:54:03;;;;;;;15.83;8.68;;;;;;;9.66;100.00;99190.83;4035183;86;21105;-83
2022/10/04 06:00:19;;;;;;;20.92;9.80;;;;;;;9.71;100.00;99198.73;3980354;87;21049;-86
2022/10/04 06:06:42;;;;;;;17.90;8.88;;;;;;;9.75;100.00;99205.03;3923318;89;22298;-85
2022/10/04 06:13:12;;;;;;;21.00;9.00;;;;;;;9.78;100.00;99216.05;4054824;86;21550;-85
2022/10/04 06:19:57;;;;;;;18.52;8.25;;;;;;;9.82;100.00;99221.58;4057488;86;21061;-85
2022/10/04 06:26:09;;;;;;;18.32;6.22;;;;;;;9.89;100.00;99236.16;4056994;86;21106;-85
2022/10/04 06:32:45;;;;;;;18.57;5.85;;;;;;;9.93;100.00;99228.02;4058289;85;21073;-84
2022/10/04 06:39:14;;;;;;;17.12;6.25;;;;;;;10.04;100.00;99237.97;4063737;86;21522;-84
2022/10/04 06:45:36;;;;;;;13.58;5.92;;;;;;;10.13;100.00;99242.64;4047993;86;21015;-84
2022/10/04 06:52:05;;;;;;;10.30;4.72;;;;;;;10.21;100.00;99253.91;4057298;86;22368;-85
2022/10/04 06:58:41;;;;;;;9.13;4.78;;;;;;;10.27;100.00;99250.31;4057914;86;21035;-85
2022/10/04 07:05:29;;;;;;;12.65;4.40;;;;;;;10.34;100.00;99258.05;3974824;87;21043;-85
2022/10/04 07:11:52;;;;;;;10.13;4.03;;;;;;;10.38;100.00;99263.59;3917493;87;21431;-85
2022/10/04 07:17:57;;;;;;;9.93;4.17;;;;;;;10.43;100.00;99283.20;3986986;87;22104;-84
2022/10/04 07:24:02;;;;;;;9.18;3.55;;;;;;;10.54;100.00;99295.72;4059587;86;21041;-84
2022/10/04 07:30:10;;;;;;;10.05;3.47;;;;;;;10.56;100.00;99306.50;4054576;86;21045;-85
2022/10/04 07:36:27;;;;;;;13.95;4.35;;;;;;;10.62;100.00;99304.22;4082178;85;21097;-84
2022/10/04 07:42:41;;;;;;;12.00;4.03;;;;;;;10.72;100.00;99303.61;3999180;87;21620;-83
2022/10/04 07:48:47;;;;;;;8.45;3.47;;;;;;;10.72;100.00;99311.26;3983161;88;22332;-85
2022/10/04 07:55:18;;;;;;;6.33;3.15;;;;;;;10.67;100.00;99306.66;3950722;88;21083;-84
2022/10/04 08:01:57;;;;;;;10.63;3.47;;;;;;;10.75;100.00;99320.67;3985989;88;21085;-86
2022/10/04 08:08:33;;;;;;;13.50;3.87;;;;;;;10.79;100.00;99328.38;4014432;87;20999;-85
2022/10/04 08:15:25;;;;;;;7.47;3.55;;;;;;;10.88;100.00;99337.89;4021331;87;21129;-86
2022/10/04 08:21:35;;;;;;;10.25;3.60;;;;;;;10.92;100.00;99351.64;4019916;87;21079;-87
2022/10/04 08:35:35;;;;;;;8.00;3.62;;;;;;;10.96;100.00;99370.31;4055202;86;21030;-85
2022/10/04 08:42:32;;;;;;;11.85;3.42;;;;;;;11.02;100.00;99372.94;4073066;86;21061;-86
2022/10/04 08:49:04;;;;;;;14.60;3.27;;;;;;;11.12;100.00;99371.52;4071531;86;21029;-86
2022/10/04 08:55:36;;;;;;;9.88;3.65;;;;;;;11.15;100.00;99370.78;3895113;87;22030;-86
2022/10/04 09:02:17;;;;;;;8.08;2.80;;;;;;;11.21;100.00;99380.26;3934060;89;21143;-83
2022/10/04 09:08:36;;;;;;;10.78;3.45;;;;;;;11.21;100.00;99387.91;4051866;86;21508;-87
2022/10/04 09:15:04;;;;;;;9.75;3.17;;;;;;;11.22;100.00;99388.11;3974629;86;21048;-86
2022/10/04 09:21:29;;;;;;;14.68;3.50;;;;;;;11.37;100.00;99402.22;3977393;88;21880;-84
2022/10/04 09:28:06;;;;;;;12.28;3.52;;;;;;;11.44;100.00;99407.81;3967898;86;21437;-85
2022/10/04 09:35:05;;;;;;;9.00;3.37;;;;;;;11.49;100.00;99416.30;4070236;85;21085;-85
2022/10/04 09:41:33;;;;;;;9.50;3.27;;;;;;;11.51;100.00;99424.34;4088707;85;21056;-85
2022/10/04 09:48:07;;;;;;;10.88;3.30;;;;;;;11.55;100.00;99425.78;4090678;85;21985;-85
2022/10/04 09:54:44;;;;;;;11.40;2.98;;;;;;;11.65;100.00;99425.17;4089560;85;21025;-85
2022/10/04 10:00:55;;;;;;;;;;;;;;;11.88;100.00;99425.86;4095879;84;22110;-85
2022/10/04 10:07:31;;;;;;;6.35;2.55;;;;;;;12.09;100.00;99428.87;4090505;85;20197;-86
2022/10/04 10:14:02;;;;;;;11.20;2.75;;;;;;;12.19;100.00;99430.37;4087078;85;21095;-85
2022/10/04 10:21:04;;;;;;;9.35;2.58;;;;;;;12.68;100.00;99429.30;4085232;85;21071;-85
2022/10/04 10:27:37;;;;;;;12.33;2.80;;;;;;;12.84;100.00;99431.22;4092135;85;21096;-86
2022/10/04 10:34:12;;;;;;;7.53;2.50;;;;;;;12.67;100.00;99438.11;4081790;85;21528;-86
2022/10/04 10:40:32;;;;;;;6.22;2.98;;;;;;;12.47;100.00;99449.09;4057243;86;22392;-86
2022/10/04 10:47:17;;;;;;;8.03;2.98;;;;;;;12.40;100.00;99453.92;4030617;86;21567;-85
2022/10/04 10:53:40;;;;;;;7.97;2.80;;;;;;;12.90;100.00;99453.86;4030721;86;21105;-87
2022/10/04 11:00:18;;;;;;;8.15;2.65;;;;;;;12.99;100.00;99462.56;4050016;86;21597;-86
2022/10/04 11:14:06;;;;;;;7.22;2.72;;;;;;;13.30;100.00;99456.56;3934137;89;21025;-86
2022/10/04 11:21:00;;;;;;;8.88;2.72;;;;;;;13.83;100.00;99470.66;4050916;86;21050;-85
2022/10/04 11:27:12;;;;;;;10.28;2.52;;;;;;;13.91;100.00;99465.39;4057588;86;21630;-86
2022/10/04 11:33:40;;;;;;;11.10;2.50;;;;;;;13.92;100.00;99472.49;3978669;87;21058;-85
2022/10/04 11:40:08;;;;;;;5.30;1.60;;;;;;;14.15;100.00;99474.36;3951694;88;21124;-86
2022/10/04 11:46:47;;;;;;;6.87;2.35;;;;;;;13.95;100.00;99478.60;3985819;88;21136;-87
2022/10/04 11:53:12;;;;;;;12.35;1.98;;;;;;;13.63;100.00;99485.28;3950723;89;22001;-87
2022/10/04 11:59:31;;;;;;;4.55;2.12;;;;;;;13.44;100.00;99480.04;4022437;87;21906;-86
2022/10/04 12:06:04;;;;;;;5.92;2.10;;;;;;;13.41;100.00;99478.62;3985493;88;21019;-86
2022/10/04 12:19:27;;;;;;;6.30;1.70;;;;;;;13.33;100.00;99481.92;4017279;87;21071;-86
2022/10/04 12:26:06;;;;;;;3.97;1.60;;;;;;;13.43;100.00;99486.72;3952182;88;21608;-86
2022/10/04 12:32:34;;;;;;;5.25;1.55;;;;;;;13.56;100.00;99495.45;3984358;88;21545;-87
2022/10/04 12:38:56;;;;;;;6.70;1.67;;;;;;;13.65;100.00;99495.91;3950740;88;21011;-86
2022/10/04 12:45:15;;;;;;;5.62;1.52;;;;;;;13.64;100.00;99493.73;3993695;87;20970;-87
2022/10/04 12:51:45;;;;;;;4.85;1.67;;;;;;;13.67;100.00;99488.84;3937541;89;21062;-87
2022/10/04 12:57:59;;;;;;;4.95;1.82;;;;;;;13.58;99.84;99498.02;3956519;88;21544;-86
2022/10/04 13:04:42;;;;;;;7.65;2.00;;;;;;;13.60;100.00;99494.88;4068149;86;21097;-85
2022/10/04 13:11:08;;;;;;;3.72;1.40;;;;;;;13.71;100.00;99501.25;4071937;86;21082;-86
2022/10/04 13:17:40;;;;;;;4.17;1.40;;;;;;;13.84;99.60;99507.41;4075150;86;21046;-87
2022/10/04 13:24:05;;;;;;;7.28;1.40;;;;;;;13.87;99.08;99506.67;4073202;86;21089;-87
2022/10/04 13:30:22;;;;;;;3.25;1.47;;;;;;;13.95;98.68;99511.63;4066361;86;21898;-87
2022/10/04 13:36:55;;;;;;;4.92;1.32;;;;;;;13.84;97.79;99510.17;4069836;86;21510;-87
2022/10/04 13:43:26;;;;;;;4.70;1.25;;;;;;;13.84;97.61;99514.91;4074384;86;21097;-87
2022/10/04 13:50:06;;;;;;;3.00;1.10;;;;;;;13.94;96.70;99520.46;4056848;86;20997;-87
2022/10/04 14:02:59;;;;;;;4.42;1.40;;;;;;;14.22;94.40;99521.19;4079676;87;21026;-87
2022/10/04 14:09:24;;;;;;;6.05;1.85;;;;;;;14.23;93.94;99531.05;4067026;86;21061;-87
2022/10/04 14:16:00;;;;;;;4.58;1.60;;;;;;;14.17;93.48;99546.36;4070273;86;20978;-87
2022/10/04 14:22:46;;;;;;;3.35;1.02;;;;;;;14.09;92.32;99541.98;4070889;86;21018;-87
2022/10/04 14:29:09;;;;;;;5.40;1.27;;;;;;;14.00;92.25;99542.92;4075204;86;21057;-86
2022/10/04 14:35:34;;;;;;;3.05;1.05;;;;;;;13.84;90.31;99536.92;4077104;86;21636;-87
2022/10/04 14:42:14;;;;;;;3.65;1.30;;;;;;;13.73;89.70;99538.20;4087017;85;21005;-87
2022/10/04 14:48:35;;;;;;;4.30;1.55;;;;;;;13.63;89.69;99544.44;4082115;85;21064;-87
2022/10/04 14:54:54;;;;;;;4.90;1.35;;;;;;;13.54;89.87;99533.55;4080043;85;22725;-85
2022/10/04 15:01:07;;;;;;;5.20;1.37;;;;;;;13.45;89.54;99538.59;3981196;88;21077;-85
2022/10/04 15:07:33;;;;;;;5.85;1.37;;;;;;;13.42;88.58;99544.86;3924810;89;21600;-86
2022/10/04 15:13:54;;;;;;;4.05;1.27;;;;;;;13.34;88.47;99544.59;3894804;90;21239;-86
2022/10/04 15:20:33;;;;;;;4.72;1.20;;;;;;;13.26;87.99;99562.98;3895039;90;21146;-85
2022/10/04 15:27:24;;;;;;;6.37;1.30;;;;;;;13.17;88.17;99572.10;3885513;89;21046;-86
2022/10/04 15:33:31;;;;;;;5.25;1.55;;;;;;;13.07;88.64;99572.81;3983599;88;21079;-86
2022/10/04 15:39:44;;;;;;;5.83;1.50;;;;;;;12.87;89.18;99578.83;3948753;87;21045;-86
2022/10/04 15:46:06;;;;;;;8.48;3.02;;;;;;;12.68;89.48;99581.94;3948465;89;21066;-86
2022/10/04 15:52:49;;;;;;;23.90;11.70;;;;;;;12.38;89.78;99585.31;3952751;88;21066;-86
2022/10/04 15:59:37;;;;;;;15.78;7.95;;;;;;;12.19;89.52;99589.56;3958365;89;21064;-86
2022/10/04 16:06:10;;;;;;;11.00;4.55;;;;;;;12.07;89.77;99599.39;3953059;90;21035;-85
2022/10/04 16:12:35;;;;;;;14.23;6.03;;;;;;;11.99;89.81;99607.30;3943959;88;21093;-85
2022/10/04 16:19:08;;;;;;;37.75;20.43;;;;;;;11.82;89.69;99605.08;3953021;89;21094;-85
2022/10/04 16:25:37;;;;;;;38.85;20.12;;;;;;;11.62;90.16;99614.50;3953231;88;21081;-86
2022/10/04 16:31:50;;;;;;;28.60;11.83;;;;;;;11.47;90.41;99622.28;3953985;89;21543;-85
2022/10/04 16:38:24;;;;;;;24.50;10.50;;;;;;;11.28;90.72;99620.16;3961697;88;21344;-85
2022/10/04 16:44:40;;;;;;;15.20;6.70;;;;;;;11.10;90.69;99633.55;3961053;88;21050;-86
2022/10/04 16:51:19;;;;;;;20.92;8.43;;;;;;;10.83;91.82;99631.83;3893381;90;21059;-85
2022/10/04 16:57:21;;;;;;;30.27;14.33;;;;;;;10.55;91.86;99641.64;3886526;90;21422;-86
2022/10/04 17:03:33;;;;;;;32.83;17.20;;;;;;;10.34;92.17;99651.30;3983669;88;21110;-83
2022/10/04 17:09:50;;;;;;;22.27;10.23;;;;;;;10.12;92.38;99651.41;3972954;88;21026;-86
2022/10/04 17:16:14;;;;;;;28.62;13.32;;;;;;;9.88;92.77;99659.78;3979974;88;21027;-86
2022/10/04 17:22:57;;;;;;;25.08;12.43;;;;;;;9.70;93.22;99664.59;3983952;88;21074;-85
2022/10/04 17:29:24;;;;;;;24.77;13.08;;;;;;;9.54;93.67;99668.69;3968372;88;21163;-85
2022/10/04 17:36:17;;;;;;;26.90;14.63;;;;;;;9.35;94.14;99674.03;3969284;87;21136;-84
2022/10/04 17:42:33;;;;;;;26.97;14.73;;;;;;;9.20;94.48;99682.45;3881195;90;21181;-85
2022/10/04 17:55:45;;;;;;;20.10;10.70;;;;;;;8.99;95.32;99693.36;3938716;88;21092;-84
2022/10/04 18:01:55;;;;;;;23.67;12.85;;;;;;;8.78;95.69;99699.00;3958171;88;21994;-86
2022/10/04 18:08:06;;;;;;;23.57;12.78;;;;;;;8.65;96.13;99704.26;3937288;88;21674;-85
2022/10/04 18:14:41;;;;;;;24.75;14.18;;;;;;;8.52;96.08;99714.19;3954010;88;21003;-85
2022/10/04 18:20:55;;;;;;;34.08;16.75;;;;;;;8.43;96.65;99721.68;3985828;87;21872;-85
2022/10/04 18:27:03;;;;;;;35.25;17.15;;;;;;;8.35;96.98;99730.22;3961075;88;21094;-86
2022/10/04 18:33:12;;;;;;;36.33;16.50;;;;;;;8.32;97.42;99741.02;3944740;88;21479;-85
2022/10/04 18:39:21;;;;;;;32.98;17.37;;;;;;;8.20;97.44;99745.08;3937633;88;21186;-85
2022/10/04 18:45:27;;;;;;;29.77;17.07;;;;;;;8.11;97.61;99741.13;3918522;89;21176;-85
2022/10/04 18:51:52;;;;;;;21.02;11.97;;;;;;;7.97;97.90;99750.20;3919553;89;21055;-86
2022/10/04 19:05:16;;;;;;;31.45;14.18;;;;;;;7.59;98.34;99755.11;3918073;89;21113;-86
2022/10/04 19:11:41;;;;;;;31.57;16.48;;;;;;;7.54;98.89;99752.59;3913224;89;21043;-86
2022/10/04 19:18:15;;;;;;;28.05;15.23;;;;;;;7.53;99.80;99770.86;3916697;88;21057;-86
2022/10/04 19:25:01;;;;;;;31.65;17.37;;;;;;;7.50;99.74;99766.09;3930419;89;21074;-85
2022/10/04 19:31:24;;;;;;;27.77;15.60;;;;;;;7.42;99.77;99765.61;3921641;89;21047;-86
2022/10/04 19:37:35;;;;;;;27.55;13.75;;;;;;;7.34;100.00;99777.95;3910343;88;21105;-85
2022/10/04 19:44:03;;;;;;;31.60;15.83;;;;;;;7.22;100.00;99788.22;3973128;89;22004;-86
2022/10/04 19:50:26;;;;;;;25.05;14.55;;;;;;;7.20;100.00;99785.06;3938699;89;21019;-86
2022/10/04 19:56:38;;;;;;;26.97;13.62;;;;;;;7.11;100.00;99788.98;3953619;88;21138;-85
2022/10/04 20:02:42;;;;;;;24.07;13.15;;;;;;;7.05;100.00;99801.17;3949267;88;21081;-86
2022/10/04 20:08:59;;;;;;;23.00;14.15;;;;;;;7.00;100.00;99803.53;3949902;88;21082;-86
2022/10/04 20:15:24;;;;;;;21.42;13.05;;;;;;;7.03;100.00;99802.09;3889824;85;10000143;-86
2022/10/04 20:21:30;;;;;;;21.50;13.75;;;;;;;6.93;100.00;99811.45;4067567;85;21006;-86
2022/10/04 20:27:37;;;;;;;25.62;13.62;;;;;;;6.87;100.00;99814.69;4070137;85;21951;-86
2022/10/04 20:33:47;;;;;;;;;;;;;;;6.88;100.00;99821.16;4110740;85;21949;-86
2022/10/04 20:39:54;;;;;;;26.35;13.83;;;;;;;6.87;100.00;99833.19;4020312;85;20173;-86
2022/10/04 20:45:57;;;;;;;45.33;15.20;;;;;;;6.79;100.00;99831.31;3996998;87;21015;-86
2022/10/04 20:51:59;;;;;;;22.85;13.08;;;;;;;6.71;100.00;99843.04;3987574;87;21006;-86
2022/10/04 20:58:06;;;;;;;31.48;15.38;;;;;;;6.63;100.00;99840.36;3981204;87;20975;-86
2022/10/04 21:04:32;;;;;;;26.00;15.13;;;;;;;6.53;100.00;99842.88;3984442;87;21134;-86
2022/10/04 21:10:35;;;;;;;24.87;14.27;;;;;;;6.41;100.00;99841.42;3984115;87;21003;-86
2022/10/04 21:16:49;;;;;;;30.92;15.85;;;;;;;6.31;100.00;99845.89;3875757;86;10000255;-85
2022/10/04 21:23:07;;;;;;;28.00;16.07;;;;;;;6.33;100.00;99845.78;3995043;87;21043;-85
2022/10/04 21:29:08;;;;;;;28.07;14.13;;;;;;;6.40;100.00;99846.06;3988976;87;21086;-85
2022/10/04 21:35:12;;;;;;;29.52;15.05;;;;;;;6.51;100.00;99857.95;3993837;87;21134;-86
2022/10/04 21:41:13;;;;;;;26.23;14.98;;;;;;;6.51;100.00;99864.19;4061835;84;21666;-86
2022/10/04 21:47:15;;;;;;;25.55;16.10;;;;;;;6.47;100.00;99868.67;4073835;86;21632;-86
2022/10/04 21:53:19;;;;;;;29.82;15.05;;;;;;;6.50;100.00;99876.77;4067855;85;21070;-86
2022/10/04 21:59:25;;;;;;;27.50;15.43;;;;;;;6.50;100.00;99874.82;4072370;86;21070;-86
2022/10/04 22:05:27;;;;;;;27.77;15.15;;;;;;;6.51;100.00;99879.70;4070503;85;21027;-86
2022/10/04 22:11:32;;;;;;;26.57;14.85;;;;;;;6.39;100.00;99882.55;4074136;86;21334;-85
2022/10/04 22:17:33;;;;;;;24.45;14.38;;;;;;;6.25;100.00;99890.11;4075591;85;21065;-85
2022/10/04 22:23:43;;;;;;;25.30;15.50;;;;;;;6.18;100.00;99888.47;4059932;88;21063;-85
2022/10/04 22:29:45;;;;;;;28.42;16.02;;;;;;;6.05;100.00;99885.38;4070000;86;21491;-86
2022/10/04 22:35:46;;;;;;;26.87;16.85;;;;;;;6.08;100.00;99882.02;4091886;86;21015;-86
2022/10/04 22:41:55;;;;;;;28.60;16.37;;;;;;;6.09;100.00;99897.19;4004952;86;21058;-86
2022/10/04 22:48:00;;;;;;;25.72;14.45;;;;;;;6.05;100.00;99881.30;4036459;87;21640;-86
2022/10/04 22:54:01;;;;;;;29.82;14.30;;;;;;;5.96;100.00;99876.45;4017904;86;21668;-86
2022/10/04 23:00:05;;;;;;;27.75;15.75;;;;;;;5.83;100.00;99877.42;3968827;88;22018;-86
2022/10/04 23:06:11;;;;;;;26.42;16.20;;;;;;;5.78;100.00;99859.13;3862788;90;21207;-86
2022/10/04 23:12:12;;;;;;;29.67;16.05;;;;;;;5.70;100.00;99844.41;3897787;90;21039;-87
2022/10/04 23:18:18;;;;;;;25.27;15.13;;;;;;;5.69;100.00;99835.22;3930892;88;21023;-86
2022/10/04 23:24:22;;;;;;;24.25;15.08;;;;;;;5.72;100.00;99835.93;3919174;89;21592;-86
2022/10/04 23:30:23;;;;;;;26.82;15.40;;;;;;;5.69;100.00;99846.89;3956732;88;21585;-85
2022/10/04 23:36:25;;;;;;;25.72;16.00;;;;;;;5.60;100.00;99865.67;3928102;89;21048;-85
2022/10/04 23:42:31;;;;;;;26.20;15.38;;;;;;;5.51;100.00;99875.17;4057550;86;21090;-85
2022/10/04 23:48:32;;;;;;;29.47;16.27;;;;;;;5.43;100.00;99877.91;4028980;86;21765;-86
2022/10/04 23:54:35;;;;;;;29.72;16.52;;;;;;;5.39;100.00;99875.58;4128103;85;21454;-85
